Time;durP1;ratioP1;P1;durP2;ratioP2;P2;SDS_P1;SDS_P2;PMS_P1;PMS_P2;Temp;Humidity;BMP_temperature;BMP_pressure;BME280_temperature;BME280_humidity;BME280_pressure;Samples;Min_cycle;Max_cycle;Signal;HPM_P1;HPM_P2
2021/08/14 00:00:23;;;;;;;;;;;14.50;99.90;;;13.12;91.39;101842.66;2568447;30;136790;-39
2021/08/14 00:02:50;;;;;;;;;;;14.50;99.90;;;13.12;91.75;101845.41;2568193;30;138413;-39
2021/08/14 00:05:18;;;;;;;;;;;14.50;99.90;;;13.13;91.89;101839.72;2567291;30;137125;-40
2021/08/14 00:07:45;;;;;;;;;;;14.50;99.90;;;13.12;91.77;101843.47;2568385;30;137546;-39
2021/08/14 00:10:13;;;;;;;;;;;14.50;99.90;;;13.12;91.86;101842.66;2567595;30;136698;-39
2021/08/14 00:12:41;;;;;;;;;;;14.50;99.90;;;13.07;92.31;101835.91;2568006;30;138310;-41
2021/08/14 00:15:08;;;;;;;;;;;14.50;99.90;;;13.02;91.96;101834.81;2567318;30;137306;-39
2021/08/14 00:17:36;;;;;;;;;;;14.40;99.90;;;13.00;92.10;101835.03;2568111;30;138979;-39
2021/08/14 00:20:05;;;;;;;;;;;14.40;99.90;;;12.97;91.84;101842.81;2566667;30;137287;-39
2021/08/14 00:22:32;;;;;;;;;;;14.40;99.90;;;12.92;92.48;101846.16;2567681;30;138318;-39
2021/08/14 00:25:00;;;;;;;;;;;14.30;99.90;;;12.89;92.25;101843.81;2568652;30;137190;-39
2021/08/14 00:27:27;;;;;;;;;;;14.30;99.90;;;12.84;92.28;101847.16;2568363;30;138565;-40
2021/08/14 00:29:54;;;;;;;;;;;14.20;99.90;;;12.71;92.33;101817.81;2569511;30;137246;-39
2021/08/14 00:32:22;;;;;;;;;;;14.20;99.90;;;12.83;92.84;101850.09;2565921;30;139500;-40
2021/08/14 00:34:49;;;;;;;;;;;14.20;99.90;;;12.86;93.46;101850.53;2566740;30;138778;-39
2021/08/14 00:37:16;;;;;;;;;;;14.20;99.90;;;12.85;93.43;101850.75;2568299;30;137993;-39
2021/08/14 00:39:44;;;;;;;;;;;14.20;99.90;;;12.84;93.44;101847.16;2568107;30;137363;-40
2021/08/14 00:42:11;;;;;;;;;;;14.20;99.90;;;12.80;93.47;101846.72;2566388;30;138070;-39
2021/08/14 00:44:39;;;;;;;;;;;14.20;99.90;;;12.77;92.79;101847.13;2568448;30;137367;-39
2021/08/14 00:47:06;;;;;;;;;;;14.10;99.90;;;12.73;92.96;101840.38;2568235;30;138511;-40
2021/08/14 00:49:34;;;;;;;;;;;14.10;99.90;;;12.72;93.00;101833.19;2567692;30;136944;-41
2021/08/14 00:52:02;;;;;;;;;;;14.10;99.90;;;12.72;93.10;101830.44;2568452;30;138392;-39
2021/08/14 00:54:29;;;;;;;;;;;14.10;99.90;;;12.70;92.96;101823.50;2568453;30;136929;-40
2021/08/14 00:56:57;;;;;;;;;;;14.10;99.90;;;12.65;92.81;101813.16;2566335;30;137471;-40
2021/08/14 00:59:29;;;;;;;;;;;14.10;99.90;;;12.65;92.83;101813.16;2568764;30;137109;-40
2021/08/14 01:02:01;;;;;;;;;;;14.00;99.90;;;12.61;92.86;101807.25;2568867;30;138273;-41
2021/08/14 01:04:29;;;;;;;;;;;14.00;99.90;;;12.61;93.19;101804.50;2568102;30;137245;-41
2021/08/14 01:06:57;;;;;;;;;;;14.00;99.90;;;12.59;93.38;101805.75;2565644;30;139141;-39
2021/08/14 01:09:28;;;;;;;;;;;14.00;99.90;;;12.58;93.45;101807.63;2567404;30;137962;-39
2021/08/14 01:11:59;;;;;;;;;;;14.00;99.90;;;12.58;93.43;101806.81;2568082;30;139013;-39
2021/08/14 01:14:28;;;;;;;;;;;14.00;99.90;;;12.56;93.77;101808.91;2566197;30;137303;-39
2021/08/14 01:16:56;;;;;;;;;;;13.90;99.90;;;12.51;93.43;101802.13;2565824;30;138467;-39
2021/08/14 01:19:24;;;;;;;;;;;13.90;99.90;;;12.49;93.09;101806.09;2567759;30;136991;-41
2021/08/14 01:21:52;;;;;;;;;;;13.90;99.90;;;12.50;93.37;101811.41;2567887;30;137112;-39
2021/08/14 01:24:21;;;;;;;;;;;13.90;99.90;;;12.49;93.75;101819.78;2568593;30;137171;-39
2021/08/14 01:26:49;;;;;;;;;;;13.90;99.90;;;12.46;93.77;101812.81;2567349;30;138358;-39
2021/08/14 01:29:16;;;;;;;;;;;13.80;99.90;;;12.44;93.54;101814.91;2568097;30;137203;-40
2021/08/14 01:31:44;;;;;;;;;;;13.80;99.90;;;12.39;93.75;101808.38;2567660;30;137296;-41
2021/08/14 01:34:12;;;;;;;;;;;13.80;99.90;;;12.40;93.34;101812.81;2567062;30;136938;-39
2021/08/14 01:36:39;;;;;;;;;;;13.80;99.90;;;12.37;93.94;101809.44;2567484;30;138593;-40
2021/08/14 01:39:06;;;;;;;;;;;13.80;99.90;;;12.35;93.89;101805.19;2568346;30;137289;-40
2021/08/14 01:41:34;;;;;;;;;;;13.70;99.90;;;12.33;93.91;101796.34;2567734;30;138270;-39
2021/08/14 01:44:01;;;;;;;;;;;13.70;99.90;;;12.29;93.68;101801.34;2567631;30;136868;-39
2021/08/14 01:46:31;;;;;;;;;;;13.70;99.90;;;12.28;93.60;101787.88;2568741;30;138603;-40
2021/08/14 01:48:59;;;;;;;;;;;13.70;99.90;;;12.23;93.70;101792.06;2568532;30;136970;-40
2021/08/14 01:51:28;;;;;;;;;;;13.60;99.90;;;12.21;94.01;101791.44;2568409;30;138924;-39
2021/08/14 01:53:58;;;;;;;;;;;13.60;99.90;;;12.22;93.93;101795.00;2567678;30;136866;-39
2021/08/14 01:56:27;;;;;;;;;;;13.60;99.90;;;12.21;93.68;101790.56;2567538;30;136817;-40
2021/08/14 01:58:55;;;;;;;;;;;13.60;99.90;;;12.18;93.44;101790.97;2569783;30;136910;-39
2021/08/14 02:01:23;;;;;;;;;;;13.60;99.90;;;12.17;93.96;101783.81;2568128;30;138381;-39
2021/08/14 02:03:51;;;;;;;;;;;13.60;99.90;;;12.14;93.69;101782.31;2568312;30;139449;-39
2021/08/14 02:06:20;;;;;;;;;;;13.50;99.90;;;12.14;93.97;101787.78;2567910;30;138857;-39
2021/08/14 02:08:51;;;;;;;;;;;13.50;99.90;;;12.14;93.94;101790.50;2568216;30;136938;-39
2021/08/14 02:11:24;;;;;;;;;;;13.50;99.90;;;12.11;94.00;101790.09;2568300;30;138476;-39
2021/08/14 02:13:54;;;;;;;;;;;13.50;99.90;;;12.06;94.41;101779.72;2567717;30;137367;-39
2021/08/14 02:16:22;;;;;;;;;;;13.50;99.90;;;12.04;94.38;101784.56;2568720;30;139226;-39
2021/08/14 02:18:49;;;;;;;;;;;13.50;99.90;;;12.01;94.07;101776.75;2568137;30;136942;-40
2021/08/14 02:21:17;;;;;;;;;;;13.40;99.90;;;11.98;94.13;101791.63;2566984;30;138958;-40
2021/08/14 02:23:45;;;;;;;;;;;13.40;99.90;;;11.96;93.98;101782.78;2568950;30;138052;-42
2021/08/14 02:26:13;;;;;;;;;;;13.30;99.90;;;11.92;94.02;101785.06;2567874;30;139226;-39
2021/08/14 02:28:40;;;;;;;;;;;13.40;99.90;;;11.93;94.04;101792.25;2567893;30;137943;-42
2021/08/14 02:31:08;;;;;;;;;;;13.40;99.90;;;11.88;94.36;101783.75;2568727;30;138393;-39
2021/08/14 02:33:49;;;;;;;;;;;13.30;99.90;;;11.88;93.90;101785.66;2568176;30;137285;-38
2021/08/14 02:36:17;;;;;;;;;;;13.30;99.90;;;11.85;93.76;101783.34;2568315;30;138240;-40
2021/08/14 02:38:44;;;;;;;;;;;13.30;99.90;;;11.84;93.83;101787.94;2570293;30;136753;-40
2021/08/14 02:41:12;;;;;;;;;;;13.30;99.90;;;11.84;94.22;101785.22;2569189;30;137621;-40
2021/08/14 02:43:40;;;;;;;;;;;13.30;99.90;;;11.80;94.16;101781.19;2571190;30;136711;-40
2021/08/14 02:46:07;;;;;;;;;;;13.20;99.90;;;11.79;94.21;101780.31;2569338;30;137381;-40
2021/08/14 02:48:34;;;;;;;;;;;13.20;99.90;;;11.77;94.36;101776.13;2569858;30;136831;-39
2021/08/14 02:51:02;;;;;;;;;;;13.20;99.90;;;11.74;94.31;101781.97;2568630;30;137378;-40
2021/08/14 02:53:30;;;;;;;;;;;13.20;99.90;;;11.71;94.05;101777.75;2571072;30;136909;-39
2021/08/14 02:55:57;;;;;;;;;;;13.20;99.90;;;11.73;94.87;101777.56;2569688;30;138277;-40
2021/08/14 02:58:24;;;;;;;;;;;13.20;99.90;;;11.70;94.32;101776.03;2569557;30;137449;-40
2021/08/14 03:00:52;;;;;;;;;;;13.10;99.90;;;11.69;94.22;101779.81;2569463;30;137140;-39
2021/08/14 03:03:19;;;;;;;;;;;13.10;99.90;;;11.71;94.18;101769.53;2571233;30;137475;-39
2021/08/14 03:05:47;;;;;;;;;;;13.20;99.90;;;11.71;94.12;101776.91;2567048;30;139378;-40
2021/08/14 03:08:14;;;;;;;;;;;13.10;99.90;;;11.74;94.90;101776.50;2568886;30;137454;-40
2021/08/14 03:10:42;;;;;;;;;;;13.20;99.90;;;11.73;94.99;101775.66;2569996;30;137523;-40
2021/08/14 03:13:11;;;;;;;;;;;13.10;99.90;;;11.70;95.24;101775.22;2567314;30;137408;-39
2021/08/14 03:15:39;;;;;;;;;;;13.10;99.90;;;11.64;95.02;101768.63;2569365;30;137359;-40
2021/08/14 03:18:06;;;;;;;;;;;13.10;99.90;;;11.60;95.32;101770.09;2568713;30;136901;-40
2021/08/14 03:20:34;;;;;;;;;;;13.10;99.90;;;11.64;95.26;101774.94;2568743;30;138296;-39
2021/08/14 03:23:02;;;;;;;;;;;13.10;99.90;;;11.68;95.53;101777.31;2569316;30;138258;-40
2021/08/14 03:25:30;;;;;;;;;;;13.10;99.90;;;11.64;95.64;101774.94;2568892;30;138380;-39
2021/08/14 03:27:57;;;;;;;;;;;13.10;99.90;;;11.61;94.85;101780.81;2567635;30;137124;-39
2021/08/14 03:30:24;;;;;;;;;;;13.00;99.90;;;11.60;95.26;101775.53;2570650;30;137815;-39
2021/08/14 03:32:53;;;;;;;;;;;13.00;99.90;;;11.60;95.21;101776.38;2570469;30;137138;-40
2021/08/14 03:35:21;;;;;;;;;;;13.00;99.90;;;11.62;95.80;101777.03;2572772;30;137728;-39
2021/08/14 03:37:48;;;;;;;;;;;13.00;99.90;;;11.68;95.86;101782.78;2569197;30;137053;-39
2021/08/14 03:40:16;;;;;;;;;;;13.10;99.90;;;11.65;95.35;101779.34;2570519;30;138800;-40
2021/08/14 03:42:44;;;;;;;;;;;13.10;99.90;;;11.60;95.51;101773.66;2569551;30;137693;-40
2021/08/14 03:45:11;;;;;;;;;;;13.00;99.90;;;11.57;95.68;101765.00;2569807;30;138889;-40
2021/08/14 03:47:39;;;;;;;;;;;13.00;99.90;;;11.55;95.82;101773.38;2568368;30;136829;-39
2021/08/14 03:50:07;;;;;;;;;;;13.00;99.90;;;11.54;95.50;101781.78;2567853;30;138092;-39
2021/08/14 03:52:35;;;;;;;;;;;13.00;99.90;;;11.48;95.30;101772.50;2569056;30;137082;-39
2021/08/14 03:55:06;;;;;;;;;;;12.90;99.90;;;11.47;95.14;101773.53;2567873;30;137398;-39
2021/08/14 03:57:33;;;;;;;;;;;12.90;99.90;;;11.43;95.01;101773.06;2566481;30;136982;-39
2021/08/14 04:00:02;;;;;;;;;;;12.90;99.90;;;11.35;94.88;101770.47;2569222;30;138245;-39
2021/08/14 04:02:30;;;;;;;;;;;12.80;99.90;;;11.37;95.23;101776.59;2568999;30;136931;-39
2021/08/14 04:04:59;;;;;;;;;;;12.80;99.90;;;11.35;95.30;101781.41;2569421;30;139118;-40
2021/08/14 04:07:27;;;;;;;;;;;12.80;99.90;;;11.34;95.05;101775.06;2567151;30;137153;-40
2021/08/14 04:09:55;;;;;;;;;;;12.80;99.90;;;11.33;95.11;101781.59;2568937;30;138518;-40
2021/08/14 04:12:22;;;;;;;;;;;12.80;99.90;;;11.32;95.44;101779.88;2568895;30;136788;-39
2021/08/14 04:14:50;;;;;;;;;;;12.80;99.90;;;11.32;95.12;101785.34;2569203;30;138398;-40
2021/08/14 04:17:29;;;;;;;;;;;12.80;99.90;;;11.32;95.52;101790.00;2569940;30;136659;-39
2021/08/14 04:19:56;;;;;;;;;;;12.80;99.90;;;11.29;95.15;101796.66;2569470;30;139629;-40
2021/08/14 04:22:24;;;;;;;;;;;12.70;99.90;;;11.26;95.06;101794.34;2570056;30;137099;-39
2021/08/14 04:24:52;;;;;;;;;;;12.70;99.90;;;11.23;94.86;101792.81;2570580;30;137110;-40
2021/08/14 04:27:20;;;;;;;;;;;12.70;99.90;;;11.22;94.56;101793.03;2570490;30;136787;-39
2021/08/14 04:29:51;;;;;;;;;;;12.70;99.90;;;11.22;94.72;101788.41;2570908;30;158402;-39
2021/08/14 04:32:18;;;;;;;;;;;12.70;99.90;;;11.22;94.71;101787.56;2569702;30;137088;-39
2021/08/14 04:34:46;;;;;;;;;;;12.60;99.90;;;11.25;95.21;101789.06;2568141;30;138250;-40
2021/08/14 04:37:13;;;;;;;;;;;12.70;99.90;;;11.25;95.17;101783.59;2567870;30;137097;-39
2021/08/14 04:39:40;;;;;;;;;;;12.70;99.90;;;11.21;94.90;101774.94;2569881;30;138126;-39
2021/08/14 04:42:08;;;;;;;;;;;12.70;99.90;;;11.28;95.45;101772.28;2570142;30;137911;-39
2021/08/14 04:44:35;;;;;;;;;;;12.70;99.90;;;11.30;95.82;101776.50;2569067;30;138936;-39
2021/08/14 04:47:04;;;;;;;;;;;12.70;99.90;;;11.33;96.23;101783.47;2565946;30;137285;-39
2021/08/14 04:49:31;;;;;;;;;;;12.80;99.90;;;11.36;95.66;101781.19;2569737;30;138401;-39
2021/08/14 04:51:59;;;;;;;;;;;12.80;99.90;;;11.37;96.16;101776.59;2567739;30;137050;-39
2021/08/14 04:54:26;;;;;;;;;;;12.70;99.90;;;11.36;96.02;101767.53;2568828;30;138469;-40
2021/08/14 04:56:53;;;;;;;;;;;12.80;99.90;;;11.44;96.32;101776.66;2569239;30;136776;-39
2021/08/14 04:59:21;;;;;;;;;;;12.80;99.90;;;11.52;96.42;101779.25;2569304;30;137064;-39
2021/08/14 05:01:48;;;;;;;;;;;12.90;99.90;;;11.56;96.59;101775.09;2569008;30;137469;-39
2021/08/14 05:04:16;;;;;;;;;;;12.90;99.90;;;11.63;96.95;101770.50;2568089;30;137170;-40
2021/08/14 05:06:43;;;;;;;;;;;13.00;99.90;;;11.71;97.09;101766.81;2568645;30;136939;-39
2021/08/14 05:09:11;;;;;;;;;;;13.00;99.90;;;11.80;97.47;101772.97;2566511;30;137201;-39
2021/08/14 05:11:38;;;;;;;;;;;13.10;99.90;;;11.87;97.47;101776.59;2569586;30;138162;-39
2021/08/14 05:14:05;;;;;;;;;;;13.20;99.90;;;11.97;97.59;101780.91;2569593;30;137412;-39
2021/08/14 05:16:34;;;;;;;;;;;13.30;99.90;;;12.04;97.57;101771.72;2567766;30;137285;-39
2021/08/14 05:19:02;;;;;;;;;;;13.30;99.90;;;12.11;97.44;101771.78;2569789;30;137092;-39
2021/08/14 05:21:30;;;;;;;;;;;13.40;99.90;;;12.19;97.21;101781.72;2568709;30;136824;-41
2021/08/14 05:23:57;;;;;;;;;;;13.50;99.90;;;12.24;97.34;101776.50;2570258;30;137915;-38
2021/08/14 05:26:24;;;;;;;;;;;13.60;99.90;;;12.34;97.12;101782.47;2567346;30;138389;-39
2021/08/14 05:28:52;;;;;;;;;;;13.60;99.90;;;12.44;97.23;101782.06;2570866;30;136934;-39
2021/08/14 05:31:19;;;;;;;;;;;13.70;99.90;;;12.58;97.73;101784.91;2567734;30;138348;-40
2021/08/14 05:33:47;;;;;;;;;;;13.80;99.90;;;12.69;97.64;101781.56;2569964;30;137001;-40
2021/08/14 05:36:15;;;;;;;;;;;13.90;99.90;;;12.78;98.08;101776.78;2569835;30;137886;-40
2021/08/14 05:38:42;;;;;;;;;;;14.00;99.90;;;12.88;97.75;101782.72;2570855;30;137375;-40
2021/08/14 05:41:10;;;;;;;;;;;14.10;99.90;;;12.97;97.23;101779.81;2571296;30;137262;-40
2021/08/14 05:43:37;;;;;;;;;;;14.20;99.90;;;13.07;96.84;101792.06;2569279;30;137832;-39
2021/08/14 05:46:04;;;;;;;;;;;14.30;99.90;;;13.27;96.75;101791.28;2569090;30;137176;-39
2021/08/14 05:48:32;;;;;;;;;;;14.40;99.90;;;13.43;96.18;101781.00;2569626;30;139237;-39
2021/08/14 05:50:59;;;;;;;;;;;14.60;99.90;;;13.61;95.86;101773.03;2570450;30;138979;-39
2021/08/14 05:53:26;;;;;;;;;;;14.70;99.90;;;13.83;95.28;101771.97;2567928;30;138349;-39
2021/08/14 05:55:54;;;;;;;;;;;14.90;99.90;;;14.02;94.63;101775.75;2569376;30;137329;-39
2021/08/14 05:58:21;;;;;;;;;;;15.10;99.90;;;14.24;93.95;101766.22;2570482;30;137529;-40
2021/08/14 06:00:51;;;;;;;;;;;15.20;99.90;;;14.39;92.44;101767.88;2569979;30;137087;-39
2021/08/14 06:03:19;;;;;;;;;;;15.40;99.90;;;14.59;91.57;101764.25;2570100;30;137344;-40
2021/08/14 06:05:47;;;;;;;;;;;15.60;99.90;;;14.77;90.44;101769.91;2568173;30;136840;-40
2021/08/14 06:08:15;;;;;;;;;;;15.70;99.90;;;14.97;89.32;101777.22;2567195;30;138513;-40
2021/08/14 06:10:43;;;;;;;;;;;15.90;99.90;;;15.14;87.99;101779.47;2570335;30;137830;-40
2021/08/14 06:13:10;;;;;;;;;;;16.10;99.90;;;15.27;87.49;101782.13;2570395;30;139118;-40
2021/08/14 06:15:38;;;;;;;;;;;16.20;99.90;;;15.46;85.92;101784.97;2570580;30;136871;-40
2021/08/14 06:18:06;;;;;;;;;;;16.40;99.90;;;15.57;86.25;101794.41;2567694;30;138578;-40
2021/08/14 06:20:33;;;;;;;;;;;16.50;99.90;;;15.66;84.24;101791.19;2569111;30;137144;-39
2021/08/14 06:23:00;;;;;;;;;;;16.60;99.90;;;15.76;82.97;101796.16;2570108;30;137031;-41
2021/08/14 06:25:28;;;;;;;;;;;16.70;99.90;;;15.90;83.53;101796.09;2567571;30;138077;-39
2021/08/14 06:27:55;;;;;;;;;;;16.80;99.90;;;16.00;82.84;101796.41;2570950;30;137438;-40
2021/08/14 06:30:23;;;;;;;;;;;16.90;99.90;;;16.13;82.91;101795.44;2569808;30;136977;-40
2021/08/14 06:32:50;;;;;;;;;;;17.10;99.90;;;16.27;81.65;101796.16;2569144;30;136790;-40
2021/08/14 06:35:18;;;;;;;;;;;17.10;99.90;;;16.37;79.58;101795.63;2569399;30;137549;-40
2021/08/14 06:37:46;;;;;;;;;;;17.30;99.90;;;16.53;80.88;101792.28;2568259;30;137336;-40
2021/08/14 06:40:14;;;;;;;;;;;17.40;99.90;;;16.71;79.99;101790.63;2569954;30;137046;-40
2021/08/14 06:42:42;;;;;;;;;;;17.60;99.90;;;16.77;77.76;101783.31;2567824;30;137358;-40
2021/08/14 06:45:10;;;;;;;;;;;17.70;99.90;;;16.77;77.76;101784.19;2568016;30;137604;-40
2021/08/14 06:47:38;;;;;;;;;;;17.70;99.90;;;16.77;79.65;101784.19;2572614;30;138500;-40
2021/08/14 06:50:06;;;;;;;;;;;17.70;99.90;;;16.89;77.96;101781.50;2568257;30;136692;-39
2021/08/14 06:52:35;;;;;;;;;;;17.80;99.90;;;17.02;76.96;101774.13;2570411;30;137624;-39
2021/08/14 06:55:04;;;;;;;;;;;17.90;99.90;;;17.22;76.35;101787.63;2568967;30;137008;-39
2021/08/14 06:57:31;;;;;;;;;;;18.10;99.90;;;17.35;74.75;101776.44;2568421;30;139213;-38
2021/08/14 06:59:59;;;;;;;;;;;18.20;99.90;;;17.54;75.11;101779.13;2571062;30;137824;-39
2021/08/14 07:02:26;;;;;;;;;;;18.40;99.90;;;17.71;74.84;101776.53;2571406;30;139227;-40
2021/08/14 07:04:54;;;;;;;;;;;18.50;99.90;;;17.90;75.26;101773.63;2568391;30;137331;-41
2021/08/14 07:07:21;;;;;;;;;;;18.70;99.90;;;18.04;73.89;101760.50;2570504;30;139228;-40
2021/08/14 07:09:49;;;;;;;;;;;18.80;99.90;;;18.10;71.06;101751.25;2569450;30;137122;-39
2021/08/14 07:12:16;;;;;;;;;;;19.00;99.90;;;18.23;72.19;101750.97;2570842;30;138285;-40
2021/08/14 07:14:44;;;;;;;;;;;19.00;99.90;;;18.34;72.03;101751.22;2570318;30;137317;-40
2021/08/14 07:17:11;;;;;;;;;;;19.20;99.90;;;18.39;68.17;101762.38;2568587;30;138099;-39
2021/08/14 07:19:39;;;;;;;;;;;19.30;99.90;;;18.51;67.71;101767.88;2568982;30;137709;-40
2021/08/14 07:22:06;;;;;;;;;;;19.40;99.90;;;18.65;68.08;101774.00;2569627;30;137481;-39
2021/08/14 07:24:33;;;;;;;;;;;19.50;99.90;;;18.76;68.23;101775.03;2568545;30;137272;-40
2021/08/14 07:27:01;;;;;;;;;;;19.60;99.90;;;18.88;68.67;101769.47;2570358;30;137364;-39
2021/08/14 07:29:28;;;;;;;;;;;19.70;99.90;;;19.01;69.30;101771.97;2566895;30;137267;-40
2021/08/14 07:31:56;;;;;;;;;;;19.80;99.90;;;19.06;68.50;101761.00;2568733;30;137986;-40
2021/08/14 07:34:23;;;;;;;;;;;19.90;99.90;;;19.18;65.37;101771.19;2570657;30;137042;-40
2021/08/14 07:36:50;;;;;;;;;;;19.90;99.90;;;19.27;66.27;101769.69;2566992;30;138842;-40
2021/08/14 07:39:18;;;;;;;;;;;20.10;99.90;;;19.32;66.39;101763.44;2569714;30;137045;-39
2021/08/14 07:41:45;;;;;;;;;;;20.20;99.90;;;19.40;64.28;101765.78;2568680;30;137843;-40
2021/08/14 07:44:13;;;;;;;;;;;20.20;99.90;;;19.53;66.17;101768.25;2569501;30;136913;-40
2021/08/14 07:46:47;;;;;;;;;;;20.30;99.90;;;19.64;66.12;101766.50;2569742;30;137435;-40
2021/08/14 07:49:15;;;;;;;;;;;20.40;99.90;;;19.64;64.46;101771.16;2569189;30;137573;-40
2021/08/14 07:51:42;;;;;;;;;;;20.50;99.90;;;19.81;65.87;101773.94;2569684;30;137190;-39
2021/08/14 07:54:10;;;;;;;;;;;20.60;99.90;;;19.91;64.66;101763.06;2569902;30;136960;-40
2021/08/14 07:56:39;;;;;;;;;;;20.70;99.90;;;19.87;61.73;101761.84;2569928;30;137351;-40
2021/08/14 07:59:06;;;;;;;;;;;20.70;99.90;;;20.05;62.50;101773.78;2570568;30;136964;-40
2021/08/14 08:01:33;;;;;;;;;;;20.80;99.90;;;20.04;61.08;101763.81;2566474;30;137242;-41
2021/08/14 08:04:01;;;;;;;;;;;20.80;99.90;;;20.26;63.66;101770.22;2569500;30;137068;-40
2021/08/14 08:06:28;;;;;;;;;;;21.00;99.90;;;20.38;63.49;101767.34;2570666;30;139326;-40
2021/08/14 08:08:56;;;;;;;;;;;21.10;99.90;;;20.53;62.91;101761.16;2569833;30;137539;-40
2021/08/14 08:11:23;;;;;;;;;;;21.20;99.90;;;20.66;59.18;101757.16;2569359;30;137392;-40
2021/08/14 08:13:51;;;;;;;;;;;21.30;99.90;;;20.77;59.29;101768.38;2569779;30;136743;-40
2021/08/14 08:16:18;;;;;;;;;;;21.50;99.90;;;20.82;57.30;101772.09;2569136;30;138527;-40
2021/08/14 08:18:46;;;;;;;;;;;21.60;99.90;;;20.93;57.60;101770.28;2569102;30;137128;-40
2021/08/14 08:21:13;;;;;;;;;;;21.70;99.90;;;21.05;57.04;101767.34;2567381;30;139740;-40
2021/08/14 08:23:40;;;;;;;;;;;21.70;99.90;;;21.16;56.74;101764.69;2569978;30;136797;-40
2021/08/14 08:26:08;;;;;;;;;;;21.90;99.90;;;21.27;56.21;101772.84;2566736;30;137833;-40
2021/08/14 08:28:35;;;;;;;;;;;22.00;99.90;;;21.37;58.20;101774.88;2569042;30;137267;-40
2021/08/14 08:31:02;;;;;;;;;;;22.00;99.90;;;21.29;52.60;101767.06;2568644;30;137527;-40
2021/08/14 08:33:30;;;;;;;;;;;22.10;99.90;;;21.39;55.61;101769.91;2566781;30;137286;-40
2021/08/14 08:35:57;;;;;;;;;;;22.10;99.90;;;21.41;54.19;101767.72;2572840;30;138081;-42
2021/08/14 08:38:27;;;;;;;;;;;22.10;99.90;;;21.50;54.35;101772.81;2568526;30;137812;-38
2021/08/14 08:40:55;;;;;;;;;;;22.20;99.90;;;21.44;54.42;101765.50;2567997;30;138512;-40
2021/08/14 08:43:22;;;;;;;;;;;22.20;99.90;;;21.46;53.42;101758.59;2567404;30;137351;-40
2021/08/14 08:45:50;;;;;;;;;;;22.20;99.90;;;21.38;53.29;101756.31;2568203;30;138580;-41
2021/08/14 08:48:19;;;;;;;;;;;22.30;99.90;;;21.51;53.68;101761.41;2567209;30;136998;-40
2021/08/14 08:50:48;;;;;;;;;;;22.30;99.90;;;21.59;51.06;101759.25;2568599;30;137335;-40
2021/08/14 08:53:15;;;;;;;;;;;22.40;99.90;;;21.73;51.40;101754.97;2569455;30;137178;-40
2021/08/14 08:55:43;;;;;;;;;;;22.50;99.90;;;21.74;50.12;101764.97;2567827;30;137903;-41
2021/08/14 08:58:10;;;;;;;;;;;22.50;99.90;;;21.86;49.48;101756.44;2568937;30;137016;-38
2021/08/14 09:00:38;;;;;;;;;;;22.60;99.90;;;21.89;49.12;101761.47;2570284;30;137652;-40
2021/08/14 09:03:11;;;;;;;;;;;22.60;99.90;;;21.84;50.80;101756.72;2568050;30;136685;-40
2021/08/14 09:05:50;;;;;;;;;;;22.70;99.90;;;21.90;47.00;101756.78;2569137;30;139034;-41
2021/08/14 09:08:19;;;;;;;;;;;22.70;99.30;;;21.93;48.70;101762.59;2569267;30;138191;-39
2021/08/14 09:10:47;;;;;;;;;;;22.70;99.90;;;22.05;49.99;101751.28;2566763;30;139376;-39
2021/08/14 09:13:18;;;;;;;;;;;22.80;99.90;;;21.94;48.52;101747.63;2569383;30;137106;-41
2021/08/14 09:15:46;;;;;;;;;;;22.80;99.90;;;21.94;47.89;101747.63;2569884;30;137376;-41
2021/08/14 09:18:16;;;;;;;;;;;22.80;99.60;;;22.10;47.56;101744.94;2567538;30;136978;-40
2021/08/14 09:20:50;;;;;;;;;;;22.90;99.70;;;22.19;46.99;101745.28;2568398;30;139006;-41
2021/08/14 09:23:21;;;;;;;;;;;22.90;99.00;;;22.35;49.57;101741.47;2568395;30;136702;-39
2021/08/14 09:25:50;;;;;;;;;;;23.10;99.90;;;22.50;50.84;101743.50;2568516;30;137016;-40
2021/08/14 09:28:29;;;;;;;;;;;23.20;99.90;;;22.65;48.11;101744.69;2568224;30;137139;-40
2021/08/14 09:31:00;;;;;;;;;;;23.30;99.70;;;22.63;48.45;101741.34;2568413;30;138273;-40
2021/08/14 09:33:29;;;;;;;;;;;23.40;99.90;;;22.76;48.14;101743.59;2567841;30;136983;-40
2021/08/14 09:36:05;;;;;;;;;;;23.50;99.90;;;22.83;45.86;101744.22;2567319;30;139303;-40
2021/08/14 09:38:38;;;;;;;;;;;23.60;97.50;;;22.94;45.32;101744.22;2569610;30;136696;-40
2021/08/14 09:41:08;;;;;;;;;;;23.70;97.20;;;23.08;46.61;101741.75;2568689;30;138434;-40
2021/08/14 09:43:36;;;;;;;;;;;23.70;98.40;;;23.05;46.82;101745.09;2568582;30;136810;-40
2021/08/14 09:46:04;;;;;;;;;;;23.80;98.40;;;23.15;44.44;101741.50;2565624;30;138786;-39
2021/08/14 09:48:32;;;;;;;;;;;23.90;96.70;;;23.17;46.17;101740.09;2568939;30;136983;-40
2021/08/14 09:51:00;;;;;;;;;;;23.90;96.90;;;23.13;42.42;101731.47;2567679;30;138228;-40
2021/08/14 09:53:29;;;;;;;;;;;23.90;93.70;;;23.10;42.96;101731.16;2568633;30;137328;-40
2021/08/14 09:56:11;;;;;;;;;;;23.90;94.00;;;23.09;43.12;101732.28;2568780;30;138383;-40
2021/08/14 09:58:40;;;;;;;;;;;23.90;93.60;;;23.11;42.43;101732.84;2570240;30;136830;-40
2021/08/14 10:01:08;;;;;;;;;;;23.90;93.20;;;23.10;44.99;101733.94;2568310;30;138673;-40
2021/08/14 10:03:36;;;;;;;;;;;23.90;95.20;;;23.17;41.83;101723.38;2568145;30;136975;-42
2021/08/14 10:06:10;;;;;;;;;;;24.00;92.70;;;23.28;45.00;101718.69;2566420;30;139567;-40
2021/08/14 10:08:40;;;;;;;;;;;24.00;95.30;;;23.25;41.43;101728.47;2568344;30;137225;-40
2021/08/14 10:11:12;;;;;;;;;;;24.10;92.50;;;23.33;41.80;101720.66;2568096;30;138681;-40
2021/08/14 10:13:41;;;;;;;;;;;24.20;92.00;;;23.41;41.63;101720.94;2568632;30;138249;-39
2021/08/14 10:16:10;;;;;;;;;;;24.20;92.20;;;23.64;44.28;101732.63;2567953;30;138369;-39
2021/08/14 10:18:42;;;;;;;;;;;24.30;94.40;;;23.72;41.48;101722.03;2567611;30;137133;-40
2021/08/14 10:21:11;;;;;;;;;;;24.40;92.50;;;23.76;41.09;101723.13;2567223;30;138839;-39
2021/08/14 10:23:40;;;;;;;;;;;24.50;92.00;;;23.77;43.38;101719.25;2567088;30;137380;-39
2021/08/14 10:26:14;;;;;;;;;;;24.50;93.40;;;23.91;44.17;101720.34;2568830;30;139002;-40
2021/08/14 10:28:51;;;;;;;;;;;24.60;96.50;;;24.10;42.24;101720.59;2568848;30;136766;-39
2021/08/14 10:31:44;;;;;;;;;;;24.70;91.90;;;24.24;42.66;101712.47;2569455;30;138177;-41
2021/08/14 10:34:11;;;;;;;;;;;24.80;93.20;;;24.34;42.92;101707.97;2568343;30;137039;-39
2021/08/14 10:36:41;;;;;;;;;;;25.00;93.40;;;24.39;42.63;101705.16;2569596;30;138176;-43
2021/08/14 10:39:21;;;;;;;;;;;25.10;92.60;;;24.51;41.55;101707.63;2568495;30;137156;-40
2021/08/14 10:42:01;;;;;;;;;;;25.10;91.90;;;24.63;41.80;101698.91;2568615;30;138446;-40
2021/08/14 10:44:38;;;;;;;;;;;25.30;92.30;;;24.49;38.74;101704.28;2568405;30;137386;-39
2021/08/14 10:47:31;;;;;;;;;;;25.30;87.40;;;24.49;39.71;101707.91;2569077;30;137086;-40
2021/08/14 10:49:59;;;;;;;;;;;25.30;90.40;;;24.25;38.51;101703.00;2568688;30;137589;-40
2021/08/14 10:52:38;;;;;;;;;;;25.30;85.20;;;24.10;41.79;101695.53;2568704;30;138402;-39
2021/08/14 10:55:06;;;;;;;;;;;25.10;88.80;;;24.10;40.99;101701.09;2568754;30;137237;-39
2021/08/14 10:57:48;;;;;;;;;;;25.00;90.00;;;24.33;41.79;101700.72;2569598;30;137221;-39
2021/08/14 11:00:21;;;;;;;;;;;25.10;91.40;;;24.51;40.44;101682.50;2567023;30;137097;-39
2021/08/14 11:03:06;;;;;;;;;;;25.20;90.10;;;24.63;40.66;101696.97;2568775;30;139281;-40
2021/08/14 11:05:35;;;;;;;;;;;25.30;89.80;;;24.75;39.05;101690.22;2569846;30;137140;-40
2021/08/14 11:08:21;;;;;;;;;;;25.40;86.20;;;24.79;40.07;101692.16;2568270;30;137516;-40